Time;durP1;ratioP1;P1;durP2;ratioP2;P2;SDS_P1;SDS_P2;PMS_P1;PMS_P2;Temp;Humidity;BMP_temperature;BMP_pressure;BME280_temperature;BME280_humidity;BME280_pressure;Samples;Min_cycle;Max_cycle;Signal;HPM_P1;HPM_P2
2023/01/10 00:01:05;;;;;;;21.15;6.03;;;;;;;3.91;100.00;101178.44;5014417;28;20113;-81
2023/01/10 00:03:30;;;;;;;17.80;4.95;;;;;;;3.93;100.00;101175.78;5021301;28;20101;-82
2023/01/10 00:06:01;;;;;;;22.90;5.90;;;;;;;3.89;100.00;101182.03;5009771;28;20434;-81
2023/01/10 00:08:26;;;;;;;16.02;5.25;;;;;;;3.86;100.00;101180.38;5024274;28;20080;-82
2023/01/10 00:10:52;;;;;;;20.00;5.65;;;;;;;3.84;100.00;101189.16;5008729;28;20034;-81
2023/01/10 00:13:23;;;;;;;18.27;6.05;;;;;;;3.82;100.00;101193.59;5009993;28;20045;-82
2023/01/10 00:15:54;;;;;;;15.85;5.03;;;;;;;3.76;100.00;101194.69;5001297;28;20041;-82
2023/01/10 00:18:20;;;;;;;19.45;5.07;;;;;;;3.74;100.00;101199.97;5017325;28;20076;-79
2023/01/10 00:20:46;;;;;;;22.55;5.45;;;;;;;3.73;100.00;101205.22;5043165;28;20041;-83
2023/01/10 00:23:12;;;;;;;20.50;5.43;;;;;;;3.74;100.00;101218.19;5065840;28;20128;-81
2023/01/10 00:25:39;;;;;;;19.00;5.65;;;;;;;3.74;100.00;101217.31;5050602;28;20103;-82
2023/01/10 00:31:05;;;;;;;16.80;5.20;;;;;;;3.72;100.00;101235.59;5070023;28;20580;-82
2023/01/10 00:33:42;;;;;;;20.40;5.72;;;;;;;3.72;100.00;101248.63;5061453;28;20457;-82
2023/01/10 00:36:41;;;;;;;17.20;5.38;;;;;;;3.67;100.00;101252.31;5052917;28;20036;-82
2023/01/10 00:39:36;;;;;;;23.15;6.05;;;;;;;3.65;100.00;101254.97;5056730;28;20083;-82
2023/01/10 00:45:05;;;;;;;20.40;6.20;;;;;;;3.58;100.00;101253.50;5049528;28;20043;-81
2023/01/10 00:47:30;;;;;;;20.23;5.72;;;;;;;3.51;100.00;101252.03;5042042;28;20131;-82
2023/01/10 00:50:11;;;;;;;20.27;6.32;;;;;;;3.54;100.00;101256.28;5055881;28;20132;-81
2023/01/10 00:52:49;;;;;;;24.88;6.43;;;;;;;3.51;100.00;101262.44;5035753;28;20144;-82
2023/01/10 00:55:14;;;;;;;19.20;6.35;;;;;;;3.51;100.00;101261.59;5025590;28;20508;-83
2023/01/10 00:57:40;;;;;;;27.13;6.18;;;;;;;3.52;100.00;101266.72;5043014;28;20041;-82
2023/01/10 01:00:21;;;;;;;21.38;5.93;;;;;;;3.57;100.00;101267.41;5048117;28;20056;-82
2023/01/10 01:02:48;;;;;;;22.30;6.50;;;;;;;3.61;100.00;101266.41;5054081;28;20043;-82
2023/01/10 01:05:13;;;;;;;25.25;6.53;;;;;;;3.62;100.00;101270.69;5050399;28;20043;-82
2023/01/10 01:07:42;;;;;;;21.40;6.10;;;;;;;3.61;100.00;101268.16;5069210;28;20036;-82
2023/01/10 01:10:39;;;;;;;26.95;6.57;;;;;;;3.66;100.00;101272.28;5048884;28;20028;-82
2023/01/10 01:13:11;;;;;;;23.88;6.65;;;;;;;3.59;100.00;101273.38;4985751;28;20062;-81
2023/01/10 01:15:51;;;;;;;24.35;6.32;;;;;;;3.61;100.00;101288.97;4987532;28;20089;-84
2023/01/10 01:18:35;;;;;;;22.08;7.05;;;;;;;3.59;100.00;101289.00;4983391;28;20120;-82
2023/01/10 01:21:36;;;;;;;23.58;7.65;;;;;;;3.62;100.00;101304.53;4987112;28;20109;-82
2023/01/10 01:26:54;;;;;;;28.92;13.02;;;;;;;3.62;100.00;101306.28;5038176;28;20086;-82
2023/01/10 01:29:24;;;;;;;33.63;15.65;;;;;;;3.66;100.00;101306.09;5030782;28;20090;-82
2023/01/10 01:31:53;;;;;;;32.72;15.65;;;;;;;3.68;100.00;101306.91;5057088;28;20036;-82
2023/01/10 01:34:30;;;;;;;32.25;15.20;;;;;;;3.65;100.00;101320.03;5029075;28;20038;-82
2023/01/10 01:36:57;;;;;;;35.83;15.70;;;;;;;3.67;100.00;101313.00;5035908;28;20033;-82
2023/01/10 01:39:22;;;;;;;30.58;15.35;;;;;;;3.70;100.00;101325.91;5065188;28;20373;-82
2023/01/10 01:41:57;;;;;;;30.10;15.40;;;;;;;3.75;100.00;101323.13;5069730;28;20486;-82
2023/01/10 01:44:24;;;;;;;39.67;15.85;;;;;;;3.80;100.00;101323.78;5028862;28;20025;-81
2023/01/10 01:47:03;;;;;;;30.70;14.93;;;;;;;3.84;100.00;101327.97;5043568;28;20494;-81
2023/01/10 01:49:31;;;;;;;34.83;13.30;;;;;;;3.91;100.00;101333.78;5061963;28;20041;-81
2023/01/10 01:52:09;;;;;;;31.15;12.45;;;;;;;3.95;100.00;101335.34;5048171;28;20477;-82
2023/01/10 01:54:47;;;;;;;30.50;11.60;;;;;;;3.96;100.00;101345.69;5041485;28;20036;-81
2023/01/10 01:57:19;;;;;;;31.33;10.30;;;;;;;3.98;100.00;101341.28;5064178;28;20071;-82
2023/01/10 01:59:53;;;;;;;30.45;11.05;;;;;;;4.01;100.00;101341.19;5036168;28;20115;-82
2023/01/10 02:02:30;;;;;;;33.75;9.90;;;;;;;4.04;100.00;101351.50;5040436;28;20041;-81
2023/01/10 02:05:09;;;;;;;27.65;9.50;;;;;;;4.07;100.00;101353.97;5068146;28;20067;-82
2023/01/10 02:07:49;;;;;;;27.75;9.40;;;;;;;4.06;100.00;101347.06;5040274;28;20061;-82
2023/01/10 02:10:41;;;;;;;30.52;8.95;;;;;;;4.12;100.00;101340.75;5029414;28;20037;-83
2023/01/10 02:13:10;;;;;;;25.40;8.90;;;;;;;4.10;100.00;101350.41;5024957;28;20041;-82
2023/01/10 02:15:36;;;;;;;30.00;9.80;;;;;;;4.09;100.00;101359.97;5028814;28;20117;-82
2023/01/10 02:18:05;;;;;;;26.45;8.85;;;;;;;4.10;100.00;101360.81;5037137;28;20135;-82
2023/01/10 02:20:48;;;;;;;24.48;8.00;;;;;;;4.08;100.00;101365.22;5045234;28;20120;-83
2023/01/10 02:23:38;;;;;;;27.95;8.13;;;;;;;4.11;100.00;101357.31;5039442;28;20090;-83
2023/01/10 02:26:29;;;;;;;27.45;7.38;;;;;;;4.07;100.00;101355.72;5069775;28;20086;-81
2023/01/10 02:29:16;;;;;;;27.92;7.82;;;;;;;4.08;100.00;101347.84;5068092;28;20076;-83
2023/01/10 02:32:19;;;;;;;24.08;7.43;;;;;;;4.07;100.00;101348.75;5055599;28;20029;-82
2023/01/10 02:35:08;;;;;;;22.17;6.47;;;;;;;4.05;100.00;101355.78;5048622;28;20037;-81
2023/01/10 02:37:58;;;;;;;21.90;6.38;;;;;;;4.04;100.00;101348.03;5031850;28;20052;-82
2023/01/10 02:40:46;;;;;;;23.75;7.13;;;;;;;4.01;100.00;101355.97;5062231;28;20489;-82
2023/01/10 02:43:21;;;;;;;27.83;6.20;;;;;;;4.00;100.00;101351.63;5062184;28;20037;-82
2023/01/10 02:45:53;;;;;;;25.38;6.43;;;;;;;3.96;100.00;101347.47;5072054;28;20040;-82
2023/01/10 02:48:27;;;;;;;;;;;;;;;4.01;100.00;101351.59;5053512;28;20084;-82
2023/01/10 02:51:22;;;;;;;25.45;5.97;;;;;;;3.89;100.00;101367.66;5049236;28;20013;-81
2023/01/10 02:54:11;;;;;;;25.15;6.43;;;;;;;3.84;100.00;101369.59;5050162;28;20048;-82
2023/01/10 02:57:08;;;;;;;25.00;5.68;;;;;;;3.83;100.00;101369.66;5062669;28;20094;-82
2023/01/10 02:59:55;;;;;;;20.05;5.38;;;;;;;3.76;100.00;101375.09;5071378;28;20036;-81
2023/01/10 03:02:46;;;;;;;22.67;5.93;;;;;;;3.74;100.00;101379.53;5045268;28;20374;-82
2023/01/10 03:08:53;;;;;;;28.15;6.63;;;;;;;3.68;100.00;101390.16;4997892;28;20037;-82
2023/01/10 03:11:43;;;;;;;30.05;6.53;;;;;;;3.60;100.00;101387.00;5031866;28;20490;-81
2023/01/10 03:14:23;;;;;;;21.98;5.97;;;;;;;3.62;100.00;101390.38;5052087;28;20048;-82
2023/01/10 03:17:01;;;;;;;26.27;5.90;;;;;;;3.67;100.00;101398.88;5036056;28;20032;-82
2023/01/10 03:19:31;;;;;;;24.20;6.15;;;;;;;3.68;100.00;101405.78;5051354;28;20039;-82
2023/01/10 03:22:07;;;;;;;26.77;6.10;;;;;;;3.72;100.00;101416.91;5059581;28;20075;-82
2023/01/10 03:25:00;;;;;;;23.45;6.10;;;;;;;3.74;100.00;101425.50;5071157;28;20516;-83
2023/01/10 03:27:59;;;;;;;28.30;6.05;;;;;;;3.77;100.00;101415.84;5061495;28;20496;-82
2023/01/10 03:30:41;;;;;;;24.23;6.35;;;;;;;3.83;100.00;101419.13;5071818;28;20063;-82
2023/01/10 03:33:13;;;;;;;27.90;6.20;;;;;;;3.86;100.00;101419.00;5042083;28;20512;-82
2023/01/10 03:35:57;;;;;;;24.05;6.18;;;;;;;3.90;100.00;101420.59;5061168;28;20067;-82
2023/01/10 03:38:46;;;;;;;25.38;5.93;;;;;;;3.95;100.00;101419.50;5052409;28;20051;-82
2023/01/10 03:41:25;;;;;;;26.70;6.72;;;;;;;3.95;100.00;101429.06;5048797;28;20059;-82
2023/01/10 03:46:48;;;;;;;25.40;6.10;;;;;;;3.97;100.00;101433.31;5059807;28;20051;-82
2023/01/10 03:49:41;;;;;;;28.63;6.20;;;;;;;4.00;100.00;101443.63;5038418;28;20041;-82
2023/01/10 03:52:10;;;;;;;25.85;6.28;;;;;;;4.01;100.00;101434.06;5051037;28;20076;-82
2023/01/10 03:57:33;;;;;;;24.58;6.40;;;;;;;4.05;100.00;101446.06;4976593;28;20043;-82
2023/01/10 04:00:11;;;;;;;27.67;6.28;;;;;;;4.04;100.00;101452.19;4970997;28;20447;-82
2023/01/10 04:02:57;;;;;;;25.00;5.78;;;;;;;4.05;100.00;101453.88;5016256;28;20091;-82
2023/01/10 04:05:32;;;;;;;20.77;5.80;;;;;;;4.07;100.00;101465.09;5031530;28;20037;-82
2023/01/10 04:07:57;;;;;;;26.88;6.05;;;;;;;4.04;100.00;101455.63;5066903;28;20032;-82
2023/01/10 04:10:25;;;;;;;24.23;6.03;;;;;;;4.04;100.00;101465.19;5050565;28;20040;-82
2023/01/10 04:12:51;;;;;;;32.78;6.25;;;;;;;4.03;100.00;101460.91;5052773;28;20466;-82
2023/01/10 04:15:30;;;;;;;40.65;6.40;;;;;;;4.01;100.00;101465.31;5069700;28;20067;-82
2023/01/10 04:17:56;;;;;;;30.17;6.20;;;;;;;4.01;100.00;101479.19;5037180;28;20028;-82
2023/01/10 04:20:27;;;;;;;25.45;5.57;;;;;;;4.01;100.00;101486.13;5048966;28;20055;-82
2023/01/10 04:22:53;;;;;;;27.50;6.72;;;;;;;4.03;100.00;101489.53;5031798;28;20068;-82
2023/01/10 04:25:25;;;;;;;25.48;6.07;;;;;;;4.00;100.00;101480.09;5034999;28;20033;-82
2023/01/10 04:27:58;;;;;;;28.60;6.87;;;;;;;4.02;100.00;101493.03;5032784;28;20119;-82
2023/01/10 04:30:46;;;;;;;;;;;;;;;4.08;100.00;101493.66;5066692;28;20157;-82
2023/01/10 04:33:12;;;;;;;27.50;5.80;;;;;;;4.04;100.00;101481.66;5042169;28;19913;-82
2023/01/10 04:35:47;;;;;;;25.58;5.57;;;;;;;4.08;100.00;101485.00;5040859;28;20044;-82
2023/01/10 04:38:33;;;;;;;31.90;6.28;;;;;;;4.06;100.00;101479.00;5043259;28;20036;-82
2023/01/10 04:40:58;;;;;;;34.45;6.63;;;;;;;4.06;100.00;101474.66;5050377;28;20491;-81
2023/01/10 04:43:24;;;;;;;25.25;6.07;;;;;;;4.08;100.00;101480.66;5052458;28;20127;-81
2023/01/10 04:45:50;;;;;;;31.23;6.07;;;;;;;4.04;100.00;101478.22;5052380;28;20044;-81
2023/01/10 04:48:21;;;;;;;28.98;6.65;;;;;;;4.04;100.00;101484.28;5064766;28;20140;-81
2023/01/10 04:51:12;;;;;;;27.27;6.22;;;;;;;4.05;100.00;101511.16;5036508;28;20048;-81
2023/01/10 04:53:43;;;;;;;30.55;6.68;;;;;;;4.05;100.00;101511.16;5031239;28;20042;-82
2023/01/10 04:56:25;;;;;;;27.25;6.50;;;;;;;4.08;100.00;101498.88;5042809;28;20151;-81
2023/01/10 04:58:50;;;;;;;27.30;6.32;;;;;;;4.07;100.00;101496.31;5061315;28;20052;-82
2023/01/10 05:01:25;;;;;;;30.52;6.47;;;;;;;4.10;100.00;101488.41;5053407;28;20124;-81
2023/01/10 05:03:52;;;;;;;32.83;6.68;;;;;;;4.09;100.00;101484.94;5053374;28;20467;-81
2023/01/10 05:06:22;;;;;;;27.23;5.57;;;;;;;4.07;100.00;101493.72;5048298;28;20032;-83
2023/01/10 05:08:52;;;;;;;33.75;6.57;;;;;;;4.06;100.00;101505.03;5042063;28;20029;-83
2023/01/10 05:11:20;;;;;;;30.10;6.22;;;;;;;4.04;100.00;101512.06;5052329;28;20029;-83
2023/01/10 05:13:45;;;;;;;31.50;6.30;;;;;;;4.04;100.00;101520.72;5070469;28;20069;-83
2023/01/10 05:16:19;;;;;;;31.02;6.70;;;;;;;4.06;100.00;101536.28;5049476;28;20370;-83
2023/01/10 05:18:45;;;;;;;30.08;5.78;;;;;;;4.05;100.00;101545.00;5031345;28;20538;-83
2023/01/10 05:21:14;;;;;;;29.52;6.68;;;;;;;4.07;100.00;101556.22;5048381;28;20129;-83
2023/01/10 05:23:40;;;;;;;35.30;7.97;;;;;;;4.12;100.00;101550.84;5049226;28;20533;-83
2023/01/10 05:26:13;;;;;;;28.58;6.63;;;;;;;4.15;100.00;101546.38;5043473;28;20037;-81
2023/01/10 05:28:45;;;;;;;29.70;6.40;;;;;;;4.17;100.00;101554.13;5069849;28;20044;-81
2023/01/10 05:31:16;;;;;;;30.75;6.90;;;;;;;4.17;100.00;101565.41;5069501;28;20082;-81
2023/01/10 05:33:49;;;;;;;33.72;7.47;;;;;;;4.16;100.00;101561.09;5051439;28;20036;-82
2023/01/10 05:36:26;;;;;;;33.13;6.93;;;;;;;4.21;100.00;101561.78;5044076;28;20485;-81
2023/01/10 05:38:52;;;;;;;34.88;7.07;;;;;;;4.20;100.00;101554.88;5047014;28;20051;-81
2023/01/10 05:41:25;;;;;;;32.78;7.10;;;;;;;4.22;100.00;101565.22;5041573;28;20108;-82
2023/01/10 05:43:51;;;;;;;30.50;6.85;;;;;;;4.20;100.00;101562.69;5039182;28;20039;-82
2023/01/10 05:46:17;;;;;;;35.33;6.68;;;;;;;4.21;100.00;101560.91;5068285;28;20111;-82
2023/01/10 05:48:58;;;;;;;38.35;7.18;;;;;;;4.22;100.00;101568.69;5066441;28;20111;-83
2023/01/10 05:51:23;;;;;;;32.47;7.65;;;;;;;4.21;100.00;101572.19;5059243;28;20052;-82
2023/01/10 05:53:51;;;;;;;38.33;7.22;;;;;;;4.20;100.00;101575.69;5025032;28;20436;-82
2023/01/10 05:56:23;;;;;;;37.90;7.40;;;;;;;4.22;100.00;101586.91;5043809;28;20384;-83
2023/01/10 05:58:50;;;;;;;33.95;7.07;;;;;;;4.23;100.00;101588.59;5043394;28;20033;-83
2023/01/10 06:01:36;;;;;;;36.83;7.20;;;;;;;4.21;100.00;101593.03;5040938;28;20090;-83
2023/01/10 06:04:01;;;;;;;35.92;8.15;;;;;;;4.22;100.00;101589.50;5047689;28;20540;-83
2023/01/10 06:06:27;;;;;;;37.53;6.88;;;;;;;4.22;100.00;101594.72;5055342;28;20060;-82
2023/01/10 06:08:54;;;;;;;35.35;6.95;;;;;;;4.22;100.00;101594.72;5064289;28;20032;-83
2023/01/10 06:11:20;;;;;;;39.22;7.97;;;;;;;4.20;100.00;101593.94;5067894;28;20118;-83
2023/01/10 06:13:47;;;;;;;36.75;7.10;;;;;;;4.22;100.00;101589.50;5044747;28;20064;-84
2023/01/10 06:19:02;;;;;;;35.67;7.05;;;;;;;4.18;100.00;101587.94;5052274;28;20400;-83
2023/01/10 06:21:28;;;;;;;37.95;7.72;;;;;;;4.18;100.00;101582.72;5073436;28;20489;-84
2023/01/10 06:23:54;;;;;;;31.95;6.78;;;;;;;4.19;100.00;101593.97;5055514;28;20037;-83
2023/01/10 06:26:35;;;;;;;31.05;6.57;;;;;;;4.20;100.00;101591.31;5050892;28;20037;-83
2023/01/10 06:32:05;;;;;;;35.85;7.35;;;;;;;4.18;100.00;101595.75;5057752;28;20586;-83
2023/01/10 06:34:36;;;;;;;39.72;7.15;;;;;;;4.15;100.00;101595.00;5048628;28;20073;-82
2023/01/10 06:37:05;;;;;;;36.60;7.72;;;;;;;4.15;100.00;101603.66;5042681;28;20115;-83
2023/01/10 06:39:53;;;;;;;29.35;6.65;;;;;;;4.13;100.00;101600.25;5067094;28;20395;-83
2023/01/10 06:42:22;;;;;;;37.92;6.97;;;;;;;4.08;100.00;101596.97;5049323;28;20071;-83
2023/01/10 06:44:47;;;;;;;33.50;7.55;;;;;;;4.03;100.00;101602.34;5070114;28;20037;-83
2023/01/10 06:47:13;;;;;;;34.78;7.03;;;;;;;4.00;100.00;101618.06;5066956;28;20041;-82
2023/01/10 06:49:41;;;;;;;34.58;7.45;;;;;;;3.95;100.00;101601.72;5048602;28;20578;-82
2023/01/10 06:52:18;;;;;;;34.03;7.28;;;;;;;3.94;100.00;101614.81;5065428;28;20033;-83
2023/01/10 06:54:44;;;;;;;33.47;6.95;;;;;;;3.86;100.00;101633.28;5052093;28;20048;-82
2023/01/10 06:57:12;;;;;;;34.17;7.20;;;;;;;3.80;100.00;101643.06;5050636;28;20517;-83
2023/01/10 06:59:45;;;;;;;30.92;6.30;;;;;;;3.82;100.00;101651.66;5040203;28;20444;-82
2023/01/10 07:02:27;;;;;;;36.47;6.80;;;;;;;3.74;100.00;101644.97;5055124;28;20473;-82
2023/01/10 07:05:01;;;;;;;37.15;7.35;;;;;;;3.70;100.00;101643.38;5063933;28;20049;-82
2023/01/10 07:07:33;;;;;;;32.75;6.72;;;;;;;3.71;100.00;101660.69;5044447;28;20033;-81
2023/01/10 07:09:58;;;;;;;34.75;6.72;;;;;;;3.68;100.00;101670.34;5017375;28;20505;-82
2023/01/10 07:12:30;;;;;;;31.17;6.88;;;;;;;3.67;100.00;101679.06;5049287;28;20052;-82
2023/01/10 07:15:01;;;;;;;32.83;7.03;;;;;;;3.67;100.00;101679.06;5025705;28;20065;-82
2023/01/10 07:20:40;;;;;;;33.05;7.60;;;;;;;3.67;100.00;101673.84;5042045;28;20049;-82
2023/01/10 07:23:05;;;;;;;29.23;6.57;;;;;;;3.66;100.00;101682.56;5050684;28;20124;-82
2023/01/10 07:25:30;;;;;;;42.58;7.57;;;;;;;3.65;100.00;101696.47;5042017;28;20428;-82
2023/01/10 07:28:37;;;;;;;31.33;7.15;;;;;;;3.70;100.00;101692.81;5047035;28;20083;-81
2023/01/10 07:31:06;;;;;;;36.70;8.18;;;;;;;3.66;100.00;101701.63;5040335;28;20103;-82
2023/01/10 07:33:35;;;;;;;37.05;7.90;;;;;;;3.67;100.00;101698.13;5028110;28;20520;-81
2023/01/10 07:36:12;;;;;;;30.75;7.45;;;;;;;3.68;100.00;101706.78;5044854;28;20060;-82
2023/01/10 07:39:58;;;;;;;27.15;6.65;;;;;;;3.71;100.00;101712.72;5045452;28;20048;-82
2023/01/10 07:46:24;;;;;;;25.77;7.10;;;;;;;3.68;100.00;101723.25;4969224;28;20090;-82
2023/01/10 07:49:14;;;;;;;31.42;7.07;;;;;;;3.65;100.00;101720.72;5035866;28;20049;-82
2023/01/10 07:55:49;;;;;;;29.70;6.57;;;;;;;3.63;100.00;101734.69;4957973;28;20454;-82
2023/01/10 07:58:14;;;;;;;30.65;7.47;;;;;;;3.59;100.00;101735.66;4955535;28;20163;-83
2023/01/10 08:00:39;;;;;;;36.75;6.88;;;;;;;3.59;100.00;101733.06;4967450;28;20137;-83
2023/01/10 08:03:05;;;;;;;38.78;6.93;;;;;;;3.58;100.00;101729.59;4969097;28;20065;-82
2023/01/10 08:08:32;;;;;;;30.52;6.55;;;;;;;3.51;100.00;101730.69;4954247;28;20137;-82
2023/01/10 08:11:18;;;;;;;31.90;6.53;;;;;;;3.51;100.00;101730.69;4957880;28;20035;-82
2023/01/10 08:13:43;;;;;;;34.85;7.20;;;;;;;3.43;100.00;101722.28;4967766;28;20042;-82
2023/01/10 08:16:11;;;;;;;35.75;7.47;;;;;;;3.44;100.00;101723.97;4970070;28;20049;-81
2023/01/10 08:18:41;;;;;;;32.20;6.65;;;;;;;3.45;100.00;101728.28;4997643;28;20041;-81
2023/01/10 08:21:06;;;;;;;34.13;7.22;;;;;;;3.45;100.00;101725.69;5030452;28;20030;-81
2023/01/10 08:23:31;;;;;;;28.98;6.75;;;;;;;3.46;100.00;101719.59;5030285;28;20037;-81
2023/01/10 08:26:33;;;;;;;35.47;7.07;;;;;;;3.51;100.00;101728.09;5010586;28;20026;-79
2023/01/10 08:29:01;;;;;;;32.78;7.15;;;;;;;3.49;100.00;101724.69;5028911;28;20405;-79
2023/01/10 08:31:27;;;;;;;27.05;6.25;;;;;;;3.56;100.00;101735.75;5030035;28;20030;-80
2023/01/10 08:33:52;;;;;;;32.05;6.80;;;;;;;3.56;100.00;101731.41;5028499;28;20037;-79
2023/01/10 08:36:24;;;;;;;36.13;6.70;;;;;;;3.62;100.00;101743.41;5030620;28;20033;-82
2023/01/10 08:38:54;;;;;;;31.73;6.63;;;;;;;3.65;100.00;101738.94;5046000;28;20120;-79
2023/01/10 08:41:20;;;;;;;33.20;6.85;;;;;;;3.72;100.00;101735.25;5029789;28;20035;-79
2023/01/10 08:43:49;;;;;;;30.85;7.07;;;;;;;3.74;100.00;101738.66;5030654;28;20033;-82
2023/01/10 08:46:14;;;;;;;38.75;6.93;;;;;;;3.78;100.00;101729.00;5020491;28;20034;-82
2023/01/10 08:48:40;;;;;;;26.65;6.13;;;;;;;3.82;100.00;101732.34;5030732;28;20037;-82
2023/01/10 08:51:09;;;;;;;33.95;6.07;;;;;;;3.84;100.00;101727.94;5042961;28;20119;-81
2023/01/10 08:53:34;;;;;;;29.95;6.13;;;;;;;3.88;100.00;101734.75;5029642;28;20045;-81
2023/01/10 08:56:54;;;;;;;;;;;;;;;;;;;;;
2023/01/10 08:59:35;;;;;;;38.67;6.75;;;;;;;3.94;100.00;101735.41;5049819;28;20396;-81
2023/01/10 09:02:48;;;;;;;36.80;7.13;;;;;;;4.00;100.00;101724.81;5050114;28;20040;-82
2023/01/10 09:05:48;;;;;;;27.75;6.60;;;;;;;4.07;100.00;101730.69;5048913;28;20525;-81
2023/01/10 09:08:14;;;;;;;27.73;6.78;;;;;;;4.04;100.00;101715.16;5047845;28;20044;-81
2023/01/10 09:10:45;;;;;;;30.40;7.03;;;;;;;4.11;100.00;101728.81;5049380;28;20041;-84
2023/01/10 09:13:10;;;;;;;30.40;6.68;;;;;;;4.09;100.00;101713.25;5064027;28;20485;-81
2023/01/10 09:15:37;;;;;;;30.88;6.55;;;;;;;4.12;100.00;101710.53;5049290;28;20037;-82
2023/01/10 09:18:16;;;;;;;25.38;6.03;;;;;;;4.18;100.00;101712.94;5048371;28;20048;-81
2023/01/10 09:20:42;;;;;;;32.80;6.32;;;;;;;4.16;100.00;101709.53;5042388;28;20040;-81
2023/01/10 09:23:43;;;;;;;32.75;7.70;;;;;;;4.18;100.00;101712.09;5046670;28;20029;-83
2023/01/10 09:29:26;;;;;;;27.85;6.18;;;;;;;4.21;100.00;101712.81;4967678;28;20121;-81
2023/01/10 09:32:00;;;;;;;24.60;6.03;;;;;;;4.23;100.00;101707.56;4959872;28;20384;-82
2023/01/10 09:37:56;;;;;;;31.42;6.78;;;;;;;4.30;100.00;101704.69;4967291;28;20118;-83
2023/01/10 09:40:42;;;;;;;24.80;6.32;;;;;;;4.37;100.00;101710.53;4948201;29;20028;-83
2023/01/10 09:43:13;;;;;;;33.45;6.30;;;;;;;4.38;100.00;101694.00;4959016;28;20043;-82
2023/01/10 09:46:26;;;;;;;;;;;;;;;;;;;;;
2023/01/10 09:49:37;;;;;;;;;;;;;;;;;;;;;
2023/01/10 09:53:19;;;;;;;31.58;6.28;;;;;;;4.56;100.00;101703.81;5051482;28;20056;-83
2023/01/10 09:59:36;;;;;;;29.02;5.60;;;;;;;4.68;100.00;101698.16;5028038;28;20037;-83
2023/01/10 10:02:47;;;;;;;32.15;6.35;;;;;;;4.77;100.00;101701.31;4979340;28;20112;-82
2023/01/10 10:06:06;;;;;;;27.77;5.38;;;;;;;4.77;100.00;101696.97;5036818;28;20024;-82
2023/01/10 10:11:58;;;;;;;28.45;5.15;;;;;;;4.90;100.00;101698.25;5040829;28;20075;-82
2023/01/10 10:15:16;;;;;;;21.13;5.72;;;;;;;4.93;100.00;101700.72;5051859;28;20037;-82
2023/01/10 10:18:25;;;;;;;27.17;5.93;;;;;;;4.96;100.00;101691.94;5037396;28;20490;-82
2023/01/10 10:21:36;;;;;;;27.67;5.38;;;;;;;5.01;100.00;101684.78;5024784;28;20033;-82
2023/01/10 10:24:48;;;;;;;30.65;5.90;;;;;;;5.06;100.00;101682.00;5039425;28;20044;-81
2023/01/10 10:27:44;;;;;;;27.08;5.10;;;;;;;5.10;100.00;101678.38;5038767;28;20064;-81
2023/01/10 10:30:16;;;;;;;27.10;5.18;;;;;;;5.13;100.00;101678.25;5051182;28;20067;-81
2023/01/10 10:36:44;;;;;;;;;;;;;;;;;;;;;
2023/01/10 10:39:59;;;;;;;24.58;5.97;;;;;;;5.29;100.00;101658.50;5035905;28;20401;-81
2023/01/10 10:46:13;;;;;;;26.42;5.78;;;;;;;5.36;100.00;101649.53;4810587;29;20043;-82
2023/01/10 10:49:05;;;;;;;21.75;5.95;;;;;;;5.37;100.00;101651.22;4951809;28;20178;-81
2023/01/10 10:51:42;;;;;;;26.50;5.93;;;;;;;5.42;100.00;101636.25;5051522;28;20037;-81
2023/01/10 10:57:51;;;;;;;26.23;6.05;;;;;;;5.53;100.00;101628.81;5047051;28;20448;-82
2023/01/10 11:00:19;;;;;;;23.90;5.60;;;;;;;5.56;100.00;101620.88;5051790;28;20461;-82
2023/01/10 11:03:25;;;;;;;21.58;5.53;;;;;;;5.66;100.00;101624.81;5052056;28;20402;-82
2023/01/10 11:06:55;;;;;;;24.33;6.18;;;;;;;5.70;100.00;101619.47;5051905;28;20068;-82
2023/01/10 11:36:41;;;;;;;26.90;6.78;;;;;;;5.93;100.00;101593.25;4981476;28;20072;-83
2023/01/10 12:04:22;;;;;;;29.48;6.60;;;;;;;6.11;100.00;101568.97;5007582;28;20397;-82
2023/01/10 13:49:12;;;;;;;27.13;5.85;;;;;;;6.68;96.96;101417.38;4930655;29;20161;-84
2023/01/10 13:52:39;;;;;;;24.27;5.25;;;;;;;6.65;98.24;101404.44;4926249;28;20391;-84
2023/01/10 13:55:22;;;;;;;27.25;6.28;;;;;;;6.58;98.48;101411.75;4927529;29;20401;-83
2023/01/10 13:57:51;;;;;;;;;;;;;;;6.61;99.17;101411.59;4932027;29;20521;-83
2023/01/10 14:03:40;;;;;;;27.38;5.90;;;;;;;6.46;100.00;101397.50;5027927;28;20103;-84
2023/01/10 14:09:36;;;;;;;30.38;5.43;;;;;;;6.35;100.00;101375.41;4987573;28;20103;-83
2023/01/10 14:12:25;;;;;;;27.42;5.75;;;;;;;6.35;100.00;101372.78;5037039;28;20040;-83
2023/01/10 14:15:21;;;;;;;24.17;5.18;;;;;;;6.33;100.00;101372.00;5028950;28;20172;-83
2023/01/10 14:18:10;;;;;;;26.73;6.15;;;;;;;6.29;100.00;101363.47;5044571;28;20033;-83
2023/01/10 14:20:36;;;;;;;24.10;5.60;;;;;;;6.25;100.00;101357.56;5027360;28;20041;-82
2023/01/10 14:23:07;;;;;;;30.08;5.60;;;;;;;6.23;100.00;101351.56;5000754;28;20029;-82
2023/01/10 14:25:41;;;;;;;25.52;5.68;;;;;;;6.19;100.00;101351.78;5039694;28;20033;-82
2023/01/10 14:28:29;;;;;;;19.73;4.93;;;;;;;6.19;100.00;101343.94;5023032;28;20406;-82
2023/01/10 14:31:17;;;;;;;24.52;5.85;;;;;;;6.18;100.00;101337.88;5015736;28;20112;-83
2023/01/10 14:33:43;;;;;;;21.80;5.63;;;;;;;6.13;100.00;101329.41;5028618;28;20397;-84
2023/01/10 14:36:15;;;;;;;23.83;5.38;;;;;;;6.08;100.00;101320.94;5015964;28;20028;-84
2023/01/10 14:38:49;;;;;;;25.27;5.40;;;;;;;6.05;100.00;101320.25;5029962;28;20049;-83
2023/01/10 14:41:45;;;;;;;26.10;5.65;;;;;;;6.02;100.00;101315.16;5032557;28;20446;-84
2023/01/10 14:44:26;;;;;;;24.60;5.90;;;;;;;5.95;100.00;101294.53;5019281;28;20513;-83
2023/01/10 14:46:56;;;;;;;24.10;4.68;;;;;;;5.92;100.00;101286.00;5026403;28;20096;-82
2023/01/10 14:49:35;;;;;;;29.33;6.20;;;;;;;5.92;100.00;101272.94;5020258;28;20076;-83
2023/01/10 14:52:23;;;;;;;25.63;5.80;;;;;;;5.90;100.00;101261.72;5017261;28;20042;-83
2023/01/10 14:55:24;;;;;;;18.58;4.80;;;;;;;5.84;100.00;101269.84;5032539;28;20393;-83
2023/01/10 14:58:00;;;;;;;21.75;5.05;;;;;;;5.80;100.00;101263.91;5029908;28;20212;-83
2023/01/10 15:00:37;;;;;;;19.60;5.05;;;;;;;5.79;100.00;101256.16;5049501;28;20597;-83
2023/01/10 15:03:37;;;;;;;23.02;5.35;;;;;;;5.70;100.00;101256.59;5044357;28;20041;-83
2023/01/10 15:06:03;;;;;;;22.52;5.30;;;;;;;5.66;100.00;101255.91;4978433;28;20113;-82
2023/01/10 15:08:30;;;;;;;21.27;4.55;;;;;;;5.61;100.00;101252.66;5051004;28;20508;-83
2023/01/10 15:11:08;;;;;;;17.85;4.95;;;;;;;5.56;100.00;101247.63;5048822;28;20493;-82
2023/01/10 15:13:47;;;;;;;17.08;4.60;;;;;;;5.52;100.00;101243.47;5040617;28;20086;-83
2023/01/10 15:16:22;;;;;;;17.13;4.30;;;;;;;5.49;100.00;101235.78;5053209;28;20071;-82
2023/01/10 15:18:49;;;;;;;18.92;4.85;;;;;;;5.47;100.00;101227.19;5056620;28;20048;-83
2023/01/10 15:21:24;;;;;;;21.33;4.70;;;;;;;5.43;100.00;101228.25;5042926;28;20160;-83
2023/01/10 15:23:50;;;;;;;16.33;4.22;;;;;;;5.41;100.00;101229.22;5047597;28;20036;-84
2023/01/10 15:26:25;;;;;;;18.70;4.28;;;;;;;5.38;100.00;101214.56;5054057;28;20401;-84
2023/01/10 15:29:12;;;;;;;16.80;3.78;;;;;;;5.39;100.00;101221.47;5042825;28;20485;-81
2023/01/10 15:31:39;;;;;;;16.73;4.03;;;;;;;5.35;100.00;101204.28;5047331;28;20060;-83
2023/01/10 15:34:14;;;;;;;16.08;4.22;;;;;;;5.32;100.00;101201.81;5047282;28;20140;-84
2023/01/10 15:37:11;;;;;;;17.60;4.25;;;;;;;5.29;100.00;101199.34;5044898;28;20047;-84
2023/01/10 15:39:56;;;;;;;17.00;4.38;;;;;;;5.29;100.00;101210.63;5036153;28;20040;-84
2023/01/10 15:42:22;;;;;;;17.90;4.10;;;;;;;5.25;100.00;101201.25;5059015;28;20037;-84
2023/01/10 15:44:56;;;;;;;16.52;3.88;;;;;;;5.23;100.00;101194.41;5030024;28;20029;-85
2023/01/10 15:48:02;;;;;;;15.57;3.78;;;;;;;5.25;100.00;101195.19;5043948;28;20758;-83
2023/01/10 15:50:39;;;;;;;13.50;3.42;;;;;;;5.18;100.00;101176.34;5021843;28;20029;-83
2023/01/10 15:54:02;;;;;;;;;;;;;;;;;;;;;
2023/01/10 15:56:57;;;;;;;12.77;3.40;;;;;;;5.20;100.00;101165.84;5035097;28;20036;-84